Noshiro, Japan
Current Conditions -  °F | °C
As of 7:00 PM on Saturday 22 Nov 2014 (Local Time) from RJSR Reporting Station
Rain Showers Rain Showers  
Wind Chill: 50°   Ceiling: 3000
Heat Index: 50°   Visibility: 1.8mi
Dew Point: 48°   Wind: 5mph
Humidity: 94%   Direction: 230°SW
Pressure: 30.12"   Gusts: NA
Location:  40.2°N, 140.03°E
Report Text: RJSR 221000Z 23004KT 3000 -SHRA BR FEW010 SCT020 BKN030 10/09 Q1020
Loading
Personal Weather Stations






























Interactive Weather Map New forecast layout! Learn more

10-Day Weather Forecast

Advertisements
Track Severe Weather on mobile